»·PEaware :: WAT169 KSAN-KLAS

WAT169 :: KSAN-KLAS

FLIGHT INFORMATION

Flight Status: Arrived
Operator:
Walker Air Transport
More flights by this operator :: More flights under this callsign
Pilot: Marty P. (27464)
Aircraft: BOEING 737-800
(B738)
More flights by this aircraft type
Origin: KSAN San Diego Intl-Lindbergh
United States
Destination: KLAS McCarran Intl
United States
More flights between these airports :: More routes between these airports
Route: +PADRZ2 CHKNN SEBBY YELAH MISEN KEPEC6
File this flight plan on PilotEdge
Remarks:
Altitude:
(Current/Filed)
27,000ft
Speed:
(Current/Filed)
470kts
Departed: 13-Jul-20 08:43 PM
Arrived: 13-Jul-20 09:33 PM
Distance/Time
Traveled:
225nm/0:50
Distance/Time
To Go:
Arrived

Flight Plot

Page will automatically refresh every two minutes.

Flight plan parsing failed; only flown route is shown


Map Options




Map Legend


Flown Route
Filed Route
Departure Airport
Arrival Airport
Navaid (VOR, NDB)
Fix

Horizontal Profiles

Position Reports

Time Latitude Longitude Heading Altitude Ground
Speed
13-Jul-20 20:16 32.734277 -117.201759 182 27ft 0kts
13-Jul-20 20:17 32.734277 -117.201759 182 27ft 0kts
13-Jul-20 20:18 32.734277 -117.201759 182 27ft 0kts
13-Jul-20 20:19 32.734277 -117.201759 182 27ft 0kts
13-Jul-20 20:20 32.734277 -117.201759 182 27ft 0kts
13-Jul-20 20:21 32.734277 -117.201759 182 27ft 0kts
13-Jul-20 20:22 32.734277 -117.201759 182 27ft 0kts
13-Jul-20 20:23 32.734277 -117.201759 182 27ft 0kts
13-Jul-20 20:24 32.734277 -117.201759 182 27ft 0kts
13-Jul-20 20:25 32.734277 -117.201759 182 27ft 0kts
13-Jul-20 20:26 32.734277 -117.201759 182 27ft 0kts
13-Jul-20 20:27 32.734277 -117.201759 182 27ft 0kts
13-Jul-20 20:28 32.734277 -117.201759 182 27ft 0kts
13-Jul-20 20:29 32.734567 -117.201784 152 27ft 2kts
13-Jul-20 20:30 32.734715 -117.202398 54 27ft 2kts
13-Jul-20 20:31 32.734476 -117.202584 16 27ft 0kts
13-Jul-20 20:32 32.734476 -117.202584 16 27ft 0kts
13-Jul-20 20:33 32.735288 -117.201093 105 27ft 10kts
13-Jul-20 20:34 32.734603 -117.198253 106 27ft 11kts
13-Jul-20 20:35 32.733670 -117.194401 105 27ft 14kts
13-Jul-20 20:36 32.732347 -117.188950 106 27ft 20kts
13-Jul-20 20:37 32.730925 -117.183072 106 27ft 16kts
13-Jul-20 20:38 32.729794 -117.178390 106 27ft 12kts
13-Jul-20 20:39 32.729506 -117.176800 78 27ft 0kts
13-Jul-20 20:40 32.729506 -117.176800 78 27ft 0kts
13-Jul-20 20:41 32.729539 -117.176613 78 27ft 12kts
13-Jul-20 20:42 32.735879 -117.198611 286 275ft 177kts
13-Jul-20 20:43 32.768735 -117.257512 299 3217ft 235kts
13-Jul-20 20:44 32.803116 -117.324462 304 6768ft 248kts
13-Jul-20 20:45 32.846203 -117.390606 305 10007ft 261kts
13-Jul-20 20:46 32.894063 -117.464935 306 11792ft 323kts
13-Jul-20 20:47 32.954690 -117.559224 306 13421ft 376kts
13-Jul-20 20:48 33.018933 -117.659472 305 16050ft 388kts
13-Jul-20 20:49 33.091749 -117.757696 317 18349ft 404kts
13-Jul-20 20:50 33.178143 -117.845855 318 20407ft 418kts
13-Jul-20 20:51 33.269319 -117.935689 319 22265ft 431kts
13-Jul-20 20:52 33.384816 -117.970519 9 23829ft 451kts
13-Jul-20 20:53 33.494586 -117.900307 37 25437ft 460kts
13-Jul-20 20:54 33.597026 -117.806642 37 26883ft 468kts
13-Jul-20 20:55 33.703111 -117.708838 37 26960ft 494kts
13-Jul-20 20:56 33.812507 -117.607642 37 26938ft 497kts
13-Jul-20 20:57 33.921930 -117.506244 37 26939ft 497kts
13-Jul-20 20:58 34.031595 -117.404472 37 26955ft 498kts
13-Jul-20 20:59 34.141380 -117.302473 37 26963ft 499kts
13-Jul-20 21:00 34.251700 -117.199846 37 26963ft 500kts
13-Jul-20 21:01 34.361823 -117.097255 37 26961ft 501kts
13-Jul-20 21:02 34.472105 -116.994376 37 26925ft 501kts
13-Jul-20 21:03 34.582932 -116.890852 37 26884ft 503kts
13-Jul-20 21:04 34.693739 -116.787206 37 26871ft 504kts
13-Jul-20 21:05 34.804384 -116.683572 37 26869ft 487kts
13-Jul-20 21:06 34.909347 -116.585134 37 26875ft 479kts
13-Jul-20 21:07 35.014900 -116.486015 37 25593ft 470kts
13-Jul-20 21:08 35.113430 -116.387639 44 23901ft 449kts
13-Jul-20 21:09 35.201909 -116.278720 45 23871ft 459kts
13-Jul-20 21:10 35.289182 -116.169732 45 21300ft 439kts
13-Jul-20 21:11 35.372281 -116.065303 45 18950ft 411kts
13-Jul-20 21:12 35.451705 -115.965037 45 18013ft 409kts
13-Jul-20 21:13 35.531542 -115.863932 46 15630ft 408kts
13-Jul-20 21:14 35.606668 -115.768424 46 13878ft 349kts
13-Jul-20 21:15 35.669331 -115.688391 46 13077ft 313kts
13-Jul-20 21:17 35.733745 -115.608624 37 13026ft 330kts
13-Jul-20 21:18 35.819004 -115.572299 2 13029ft 330kts
13-Jul-20 21:19 35.910857 -115.566919 1 13014ft 330kts
13-Jul-20 21:20 35.985884 -115.511803 61 12601ft 322kts
13-Jul-20 21:21 36.020305 -115.410001 71 11115ft 317kts
13-Jul-20 21:22 36.026751 -115.312710 99 10467ft 282kts
13-Jul-20 21:23 36.019357 -115.213496 98 9131ft 294kts
13-Jul-20 21:24 36.012673 -115.114888 98 8259ft 271kts
13-Jul-20 21:25 36.007158 -115.028241 99 7300ft 244kts
13-Jul-20 21:26 36.002372 -114.947066 98 5259ft 241kts
13-Jul-20 21:27 36.032309 -114.897476 0 5077ft 209kts
13-Jul-20 21:28 36.072755 -114.927612 270 5077ft 178kts
13-Jul-20 21:29 36.073628 -114.984232 264 4450ft 154kts
13-Jul-20 21:30 36.073654 -115.037592 265 3631ft 155kts
13-Jul-20 21:31 36.073672 -115.089791 269 2805ft 147kts
13-Jul-20 21:31 36.073676 -115.131927 269 2219ft 137kts
13-Jul-20 21:33 36.074753 -115.145964 299 2191ft 0kts
13-Jul-20 21:34 36.076715 -115.146564 356 2191ft 15kts
13-Jul-20 21:34 36.079409 -115.147559 336 2191ft 9kts
13-Jul-20 21:35 36.079915 -115.147055 63 2191ft 0kts

Navigation Log

Ident Type
Flight plan parsing failed, navigation log unavailable